WLC weather

Walcha Airport
New South Wales, Australia

Public forecast

Using degrees Celsius for public forecast. Weather courtesy of forecast.io.

METAR (pilot weather report)

Closest report is Tamworth Airport, 37.4 nm (69.2 km) W. Retrieved 2019/02/15 22:00 UTC (2 minutes ago):

YSTW 152200Z AUTO 13012KT 9999 // NCD 22/10 Q1020 RF00.0/000.0

TAF (pilot weather forecast)

Closest forecast is Tamworth Airport, 37.4 nm (69.2 km) W. Retrieved 2019/02/15 18:36 UTC (3 hours ago):

TAF TAF YSTW 151631Z 1518/1612 12008KT 9999 SCT015 BECMG 1521/1523 11010KT CAVOK